sensor_id;sensor_type;location;lat;lon;timestamp;P1;durP1;ratioP1;P2;durP2;ratioP2
13989;SDS011;7069;52.528;13.316;2023-05-07T00:00:40;10.50;;;9.40;;
13989;SDS011;7069;52.528;13.316;2023-05-07T00:03:07;10.57;;;9.47;;
13989;SDS011;7069;52.528;13.316;2023-05-07T00:05:34;14.87;;;10.53;;
13989;SDS011;7069;52.528;13.316;2023-05-07T00:08:01;11.57;;;8.83;;
13989;SDS011;7069;52.528;13.316;2023-05-07T00:10:27;11.53;;;9.87;;
13989;SDS011;7069;52.528;13.316;2023-05-07T00:12:55;11.63;;;10.40;;
13989;SDS011;7069;52.528;13.316;2023-05-07T00:15:22;10.13;;;9.23;;
13989;SDS011;7069;52.528;13.316;2023-05-07T00:17:48;12.70;;;9.67;;
13989;SDS011;7069;52.528;13.316;2023-05-07T00:20:15;9.93;;;8.90;;
13989;SDS011;7069;52.528;13.316;2023-05-07T00:22:42;11.03;;;9.80;;
13989;SDS011;7069;52.528;13.316;2023-05-07T00:25:08;10.80;;;9.80;;
13989;SDS011;7069;52.528;13.316;2023-05-07T00:27:35;9.93;;;9.03;;
13989;SDS011;7069;52.528;13.316;2023-05-07T00:30:04;10.33;;;9.33;;
13989;SDS011;7069;52.528;13.316;2023-05-07T00:32:31;10.03;;;9.03;;
13989;SDS011;7069;52.528;13.316;2023-05-07T00:34:58;14.53;;;9.53;;
13989;SDS011;7069;52.528;13.316;2023-05-07T00:37:24;11.53;;;9.10;;
13989;SDS011;7069;52.528;13.316;2023-05-07T00:39:51;9.10;;;8.27;;
13989;SDS011;7069;52.528;13.316;2023-05-07T00:42:17;9.30;;;8.40;;
13989;SDS011;7069;52.528;13.316;2023-05-07T00:44:44;8.83;;;8.03;;
13989;SDS011;7069;52.528;13.316;2023-05-07T00:47:16;10.07;;;9.17;;
13989;SDS011;7069;52.528;13.316;2023-05-07T00:49:43;9.57;;;8.73;;
13989;SDS011;7069;52.528;13.316;2023-05-07T00:52:11;8.23;;;7.43;;
13989;SDS011;7069;52.528;13.316;2023-05-07T00:54:37;8.73;;;7.87;;
13989;SDS011;7069;52.528;13.316;2023-05-07T00:57:04;8.60;;;7.50;;
13989;SDS011;7069;52.528;13.316;2023-05-07T00:59:31;10.10;;;6.97;;
13989;SDS011;7069;52.528;13.316;2023-05-07T01:01:58;10.53;;;8.87;;
13989;SDS011;7069;52.528;13.316;2023-05-07T01:04:26;8.77;;;7.77;;
13989;SDS011;7069;52.528;13.316;2023-05-07T01:06:53;8.53;;;7.73;;
13989;SDS011;7069;52.528;13.316;2023-05-07T01:09:21;9.67;;;8.73;;
13989;SDS011;7069;52.528;13.316;2023-05-07T01:11:48;8.77;;;7.97;;
13989;SDS011;7069;52.528;13.316;2023-05-07T01:14:16;10.83;;;8.03;;
13989;SDS011;7069;52.528;13.316;2023-05-07T01:16:43;10.17;;;8.70;;
13989;SDS011;7069;52.528;13.316;2023-05-07T01:19:11;9.70;;;8.80;;
13989;SDS011;7069;52.528;13.316;2023-05-07T01:21:40;10.20;;;9.20;;
13989;SDS011;7069;52.528;13.316;2023-05-07T01:24:11;9.80;;;8.43;;
13989;SDS011;7069;52.528;13.316;2023-05-07T01:26:38;8.80;;;7.83;;
13989;SDS011;7069;52.528;13.316;2023-05-07T01:29:05;9.50;;;8.50;;
13989;SDS011;7069;52.528;13.316;2023-05-07T01:31:31;8.23;;;7.50;;
13989;SDS011;7069;52.528;13.316;2023-05-07T01:33:58;8.73;;;7.93;;
13989;SDS011;7069;52.528;13.316;2023-05-07T01:36:25;12.33;;;9.00;;
13989;SDS011;7069;52.528;13.316;2023-05-07T01:38:52;8.50;;;7.70;;
13989;SDS011;7069;52.528;13.316;2023-05-07T01:41:20;8.00;;;7.30;;
13989;SDS011;7069;52.528;13.316;2023-05-07T01:43:47;9.00;;;8.10;;
13989;SDS011;7069;52.528;13.316;2023-05-07T01:46:13;8.90;;;8.17;;
13989;SDS011;7069;52.528;13.316;2023-05-07T01:48:41;8.60;;;7.90;;
13989;SDS011;7069;52.528;13.316;2023-05-07T01:51:11;9.03;;;8.13;;
13989;SDS011;7069;52.528;13.316;2023-05-07T01:53:37;11.30;;;8.20;;
13989;SDS011;7069;52.528;13.316;2023-05-07T01:56:04;8.93;;;7.87;;
13989;SDS011;7069;52.528;13.316;2023-05-07T01:58:32;8.40;;;7.53;;
13989;SDS011;7069;52.528;13.316;2023-05-07T02:00:59;8.60;;;7.63;;
13989;SDS011;7069;52.528;13.316;2023-05-07T02:03:25;8.30;;;7.50;;
13989;SDS011;7069;52.528;13.316;2023-05-07T02:05:52;9.57;;;8.60;;
13989;SDS011;7069;52.528;13.316;2023-05-07T02:08:19;9.63;;;7.83;;
13989;SDS011;7069;52.528;13.316;2023-05-07T02:10:45;9.57;;;8.10;;
13989;SDS011;7069;52.528;13.316;2023-05-07T02:13:11;8.53;;;7.73;;
13989;SDS011;7069;52.528;13.316;2023-05-07T02:15:39;8.57;;;7.77;;
13989;SDS011;7069;52.528;13.316;2023-05-07T02:18:07;8.73;;;7.93;;
13989;SDS011;7069;52.528;13.316;2023-05-07T02:20:34;11.60;;;9.47;;
13989;SDS011;7069;52.528;13.316;2023-05-07T02:23:00;10.63;;;9.63;;
13989;SDS011;7069;52.528;13.316;2023-05-07T02:25:27;11.40;;;9.70;;
13989;SDS011;7069;52.528;13.316;2023-05-07T02:27:54;10.50;;;9.43;;
13989;SDS011;7069;52.528;13.316;2023-05-07T02:30:20;11.10;;;9.27;;
13989;SDS011;7069;52.528;13.316;2023-05-07T02:32:48;12.80;;;9.97;;
13989;SDS011;7069;52.528;13.316;2023-05-07T02:35:15;11.27;;;9.70;;
13989;SDS011;7069;52.528;13.316;2023-05-07T02:37:42;9.80;;;8.93;;
13989;SDS011;7069;52.528;13.316;2023-05-07T02:40:09;11.40;;;9.57;;
13989;SDS011;7069;52.528;13.316;2023-05-07T02:42:36;10.17;;;9.27;;
13989;SDS011;7069;52.528;13.316;2023-05-07T02:45:03;11.50;;;9.37;;
13989;SDS011;7069;52.528;13.316;2023-05-07T02:47:29;10.90;;;9.80;;
13989;SDS011;7069;52.528;13.316;2023-05-07T02:49:57;9.37;;;8.47;;
13989;SDS011;7069;52.528;13.316;2023-05-07T02:52:24;11.90;;;9.53;;
13989;SDS011;7069;52.528;13.316;2023-05-07T02:54:50;9.90;;;9.00;;
13989;SDS011;7069;52.528;13.316;2023-05-07T02:57:17;10.27;;;8.67;;
13989;SDS011;7069;52.528;13.316;2023-05-07T02:59:44;9.83;;;8.47;;
13989;SDS011;7069;52.528;13.316;2023-05-07T03:02:10;8.90;;;8.00;;
13989;SDS011;7069;52.528;13.316;2023-05-07T03:04:37;8.57;;;7.67;;
13989;SDS011;7069;52.528;13.316;2023-05-07T03:07:05;10.70;;;9.40;;
13989;SDS011;7069;52.528;13.316;2023-05-07T03:09:32;9.57;;;8.17;;
13989;SDS011;7069;52.528;13.316;2023-05-07T03:11:58;8.30;;;7.40;;
13989;SDS011;7069;52.528;13.316;2023-05-07T03:14:25;10.60;;;8.67;;
13989;SDS011;7069;52.528;13.316;2023-05-07T03:16:51;8.70;;;7.90;;
13989;SDS011;7069;52.528;13.316;2023-05-07T03:19:18;9.87;;;8.23;;
13989;SDS011;7069;52.528;13.316;2023-05-07T03:21:45;10.83;;;8.97;;
13989;SDS011;7069;52.528;13.316;2023-05-07T03:24:13;8.23;;;7.43;;
13989;SDS011;7069;52.528;13.316;2023-05-07T03:26:39;10.33;;;8.47;;
13989;SDS011;7069;52.528;13.316;2023-05-07T03:29:06;9.40;;;8.50;;
13989;SDS011;7069;52.528;13.316;2023-05-07T03:31:33;8.27;;;7.33;;
13989;SDS011;7069;52.528;13.316;2023-05-07T03:34:00;10.17;;;7.67;;
13989;SDS011;7069;52.528;13.316;2023-05-07T03:36:26;10.93;;;7.53;;
13989;SDS011;7069;52.528;13.316;2023-05-07T03:38:53;8.30;;;7.50;;
13989;SDS011;7069;52.528;13.316;2023-05-07T03:41:21;8.60;;;7.80;;
13989;SDS011;7069;52.528;13.316;2023-05-07T03:43:48;8.63;;;7.20;;
13989;SDS011;7069;52.528;13.316;2023-05-07T03:46:14;9.20;;;8.03;;
13989;SDS011;7069;52.528;13.316;2023-05-07T03:48:41;8.03;;;7.23;;
13989;SDS011;7069;52.528;13.316;2023-05-07T03:51:08;9.17;;;8.00;;
13989;SDS011;7069;52.528;13.316;2023-05-07T03:53:34;10.87;;;7.80;;
13989;SDS011;7069;52.528;13.316;2023-05-07T03:56:01;9.97;;;7.97;;
13989;SDS011;7069;52.528;13.316;2023-05-07T03:58:30;9.87;;;8.70;;
13989;SDS011;7069;52.528;13.316;2023-05-07T04:00:56;9.60;;;8.60;;
13989;SDS011;7069;52.528;13.316;2023-05-07T04:03:23;9.00;;;8.17;;
13989;SDS011;7069;52.528;13.316;2023-05-07T04:05:50;10.37;;;9.00;;
13989;SDS011;7069;52.528;13.316;2023-05-07T04:08:16;9.07;;;8.17;;
13989;SDS011;7069;52.528;13.316;2023-05-07T04:10:43;7.80;;;6.97;;
13989;SDS011;7069;52.528;13.316;2023-05-07T04:13:10;9.23;;;8.43;;
13989;SDS011;7069;52.528;13.316;2023-05-07T04:15:38;8.67;;;7.77;;
13989;SDS011;7069;52.528;13.316;2023-05-07T04:18:04;8.73;;;7.67;;
13989;SDS011;7069;52.528;13.316;2023-05-07T04:20:33;9.40;;;7.23;;
13989;SDS011;7069;52.528;13.316;2023-05-07T04:23:01;9.37;;;8.33;;
13989;SDS011;7069;52.528;13.316;2023-05-07T04:25:28;8.13;;;7.37;;
13989;SDS011;7069;52.528;13.316;2023-05-07T04:27:54;8.87;;;8.03;;
13989;SDS011;7069;52.528;13.316;2023-05-07T04:30:21;9.13;;;8.27;;
13989;SDS011;7069;52.528;13.316;2023-05-07T04:32:49;8.90;;;8.10;;
13989;SDS011;7069;52.528;13.316;2023-05-07T04:35:15;9.73;;;7.67;;
13989;SDS011;7069;52.528;13.316;2023-05-07T04:37:42;8.33;;;7.53;;
13989;SDS011;7069;52.528;13.316;2023-05-07T04:40:09;8.07;;;7.40;;
13989;SDS011;7069;52.528;13.316;2023-05-07T04:42:35;8.70;;;7.90;;
13989;SDS011;7069;52.528;13.316;2023-05-07T04:45:02;8.07;;;7.27;;
13989;SDS011;7069;52.528;13.316;2023-05-07T04:47:29;8.40;;;7.47;;
13989;SDS011;7069;52.528;13.316;2023-05-07T04:49:58;7.83;;;7.10;;
13989;SDS011;7069;52.528;13.316;2023-05-07T04:52:25;7.90;;;7.17;;
13989;SDS011;7069;52.528;13.316;2023-05-07T04:54:51;8.27;;;7.10;;
13989;SDS011;7069;52.528;13.316;2023-05-07T04:57:18;7.93;;;6.87;;
13989;SDS011;7069;52.528;13.316;2023-05-07T04:59:45;8.83;;;6.63;;
13989;SDS011;7069;52.528;13.316;2023-05-07T05:02:11;6.90;;;6.30;;
13989;SDS011;7069;52.528;13.316;2023-05-07T05:04:38;8.37;;;6.83;;
13989;SDS011;7069;52.528;13.316;2023-05-07T05:07:06;7.37;;;6.67;;
13989;SDS011;7069;52.528;13.316;2023-05-07T05:09:32;6.60;;;6.00;;
13989;SDS011;7069;52.528;13.316;2023-05-07T05:11:59;7.00;;;6.40;;
13989;SDS011;7069;52.528;13.316;2023-05-07T05:14:26;7.10;;;6.40;;
13989;SDS011;7069;52.528;13.316;2023-05-07T05:16:52;7.90;;;6.40;;
13989;SDS011;7069;52.528;13.316;2023-05-07T05:19:19;6.23;;;5.73;;
13989;SDS011;7069;52.528;13.316;2023-05-07T05:21:45;6.43;;;5.83;;
13989;SDS011;7069;52.528;13.316;2023-05-07T05:24:13;7.33;;;6.47;;
13989;SDS011;7069;52.528;13.316;2023-05-07T05:26:40;6.00;;;5.40;;
13989;SDS011;7069;52.528;13.316;2023-05-07T05:29:06;6.90;;;6.20;;
13989;SDS011;7069;52.528;13.316;2023-05-07T05:31:33;6.70;;;5.67;;
13989;SDS011;7069;52.528;13.316;2023-05-07T05:34:00;5.90;;;5.33;;
13989;SDS011;7069;52.528;13.316;2023-05-07T05:36:27;6.90;;;6.20;;
13989;SDS011;7069;52.528;13.316;2023-05-07T05:38:55;8.93;;;5.27;;
13989;SDS011;7069;52.528;13.316;2023-05-07T05:41:23;6.63;;;6.03;;
13989;SDS011;7069;52.528;13.316;2023-05-07T05:43:50;6.97;;;6.27;;
13989;SDS011;7069;52.528;13.316;2023-05-07T05:46:16;6.23;;;5.43;;
13989;SDS011;7069;52.528;13.316;2023-05-07T05:48:43;6.33;;;5.73;;
13989;SDS011;7069;52.528;13.316;2023-05-07T05:51:09;5.50;;;5.03;;
13989;SDS011;7069;52.528;13.316;2023-05-07T05:53:36;7.57;;;6.23;;
13989;SDS011;7069;52.528;13.316;2023-05-07T05:56:03;6.63;;;6.03;;
13989;SDS011;7069;52.528;13.316;2023-05-07T05:58:31;6.83;;;6.17;;
13989;SDS011;7069;52.528;13.316;2023-05-07T06:00:57;6.80;;;5.73;;
13989;SDS011;7069;52.528;13.316;2023-05-07T06:03:24;6.53;;;5.93;;
13989;SDS011;7069;52.528;13.316;2023-05-07T06:05:51;6.67;;;6.07;;
13989;SDS011;7069;52.528;13.316;2023-05-07T06:08:17;7.03;;;5.63;;
13989;SDS011;7069;52.528;13.316;2023-05-07T06:10:44;9.50;;;7.03;;
13989;SDS011;7069;52.528;13.316;2023-05-07T06:13:11;6.63;;;5.97;;
13989;SDS011;7069;52.528;13.316;2023-05-07T06:15:39;6.53;;;5.70;;
13989;SDS011;7069;52.528;13.316;2023-05-07T06:18:05;7.13;;;6.43;;
13989;SDS011;7069;52.528;13.316;2023-05-07T06:20:32;7.60;;;6.80;;
13989;SDS011;7069;52.528;13.316;2023-05-07T06:22:59;7.83;;;6.07;;
13989;SDS011;7069;52.528;13.316;2023-05-07T06:25:25;10.47;;;5.40;;
13989;SDS011;7069;52.528;13.316;2023-05-07T06:27:52;8.50;;;6.70;;
13989;SDS011;7069;52.528;13.316;2023-05-07T06:30:18;6.43;;;5.77;;
13989;SDS011;7069;52.528;13.316;2023-05-07T06:32:46;6.40;;;5.90;;
13989;SDS011;7069;52.528;13.316;2023-05-07T06:35:13;7.00;;;6.20;;
13989;SDS011;7069;52.528;13.316;2023-05-07T06:37:40;6.47;;;5.63;;
13989;SDS011;7069;52.528;13.316;2023-05-07T06:40:08;6.87;;;6.27;;
13989;SDS011;7069;52.528;13.316;2023-05-07T06:42:35;8.23;;;6.67;;
13989;SDS011;7069;52.528;13.316;2023-05-07T06:45:01;6.63;;;6.10;;
13989;SDS011;7069;52.528;13.316;2023-05-07T06:47:28;7.20;;;6.50;;
13989;SDS011;7069;52.528;13.316;2023-05-07T06:49:56;7.03;;;5.93;;
13989;SDS011;7069;52.528;13.316;2023-05-07T06:52:23;7.27;;;6.57;;
13989;SDS011;7069;52.528;13.316;2023-05-07T06:54:50;7.13;;;6.43;;
13989;SDS011;7069;52.528;13.316;2023-05-07T06:57:16;6.00;;;5.50;;
13989;SDS011;7069;52.528;13.316;2023-05-07T06:59:43;8.60;;;5.60;;
13989;SDS011;7069;52.528;13.316;2023-05-07T07:02:09;7.03;;;6.33;;
13989;SDS011;7069;52.528;13.316;2023-05-07T07:04:36;6.50;;;5.60;;
13989;SDS011;7069;52.528;13.316;2023-05-07T07:07:04;5.87;;;5.10;;
13989;SDS011;7069;52.528;13.316;2023-05-07T07:09:31;6.07;;;5.47;;
13989;SDS011;7069;52.528;13.316;2023-05-07T07:11:57;6.13;;;5.57;;
13989;SDS011;7069;52.528;13.316;2023-05-07T07:14:23;6.23;;;5.47;;
13989;SDS011;7069;52.528;13.316;2023-05-07T07:16:50;5.60;;;5.03;;
13989;SDS011;7069;52.528;13.316;2023-05-07T07:19:17;6.27;;;4.97;;
13989;SDS011;7069;52.528;13.316;2023-05-07T07:21:45;6.43;;;5.13;;
13989;SDS011;7069;52.528;13.316;2023-05-07T07:24:14;6.40;;;5.10;;
13989;SDS011;7069;52.528;13.316;2023-05-07T07:26:44;5.23;;;4.80;;
13989;SDS011;7069;52.528;13.316;2023-05-07T07:29:10;5.67;;;5.17;;
13989;SDS011;7069;52.528;13.316;2023-05-07T07:31:37;6.37;;;4.47;;
13989;SDS011;7069;52.528;13.316;2023-05-07T07:34:03;6.57;;;5.07;;
13989;SDS011;7069;52.528;13.316;2023-05-07T07:36:31;5.10;;;4.70;;
13989;SDS011;7069;52.528;13.316;2023-05-07T07:38:58;4.80;;;4.40;;
13989;SDS011;7069;52.528;13.316;2023-05-07T07:41:26;5.30;;;4.90;;
13989;SDS011;7069;52.528;13.316;2023-05-07T07:43:53;5.05;;;4.43;;
13989;SDS011;7069;52.528;13.316;2023-05-07T07:46:19;6.10;;;4.30;;
13989;SDS011;7069;52.528;13.316;2023-05-07T07:48:46;4.30;;;3.93;;
13989;SDS011;7069;52.528;13.316;2023-05-07T07:51:12;4.17;;;3.77;;
13989;SDS011;7069;52.528;13.316;2023-05-07T07:53:39;4.23;;;3.83;;
13989;SDS011;7069;52.528;13.316;2023-05-07T07:56:06;4.20;;;3.80;;
13989;SDS011;7069;52.528;13.316;2023-05-07T07:58:34;5.07;;;3.90;;
13989;SDS011;7069;52.528;13.316;2023-05-07T08:01:03;4.43;;;4.03;;
13989;SDS011;7069;52.528;13.316;2023-05-07T08:03:29;4.55;;;4.15;;
13989;SDS011;7069;52.528;13.316;2023-05-07T08:05:57;4.05;;;3.65;;
13989;SDS011;7069;52.528;13.316;2023-05-07T08:08:23;4.07;;;3.72;;
13989;SDS011;7069;52.528;13.316;2023-05-07T08:10:50;3.80;;;3.45;;
13989;SDS011;7069;52.528;13.316;2023-05-07T08:13:17;4.43;;;3.58;;
13989;SDS011;7069;52.528;13.316;2023-05-07T08:15:45;4.18;;;3.80;;
13989;SDS011;7069;52.528;13.316;2023-05-07T08:18:11;5.07;;;3.92;;
13989;SDS011;7069;52.528;13.316;2023-05-07T08:20:38;3.45;;;3.10;;
13989;SDS011;7069;52.528;13.316;2023-05-07T08:23:04;3.42;;;3.20;;
13989;SDS011;7069;52.528;13.316;2023-05-07T08:25:32;3.75;;;3.40;;
13989;SDS011;7069;52.528;13.316;2023-05-07T08:27:59;4.45;;;3.78;;
13989;SDS011;7069;52.528;13.316;2023-05-07T08:30:25;5.72;;;3.17;;
13989;SDS011;7069;52.528;13.316;2023-05-07T08:32:53;3.20;;;2.90;;
13989;SDS011;7069;52.528;13.316;2023-05-07T08:35:20;3.22;;;2.92;;
13989;SDS011;7069;52.528;13.316;2023-05-07T08:37:47;2.88;;;2.58;;
13989;SDS011;7069;52.528;13.316;2023-05-07T08:40:13;3.55;;;3.25;;
13989;SDS011;7069;52.528;13.316;2023-05-07T08:42:40;3.45;;;3.15;;
13989;SDS011;7069;52.528;13.316;2023-05-07T08:45:08;3.40;;;3.03;;
13989;SDS011;7069;52.528;13.316;2023-05-07T08:47:39;2.88;;;2.65;;
13989;SDS011;7069;52.528;13.316;2023-05-07T08:50:08;3.15;;;2.70;;
13989;SDS011;7069;52.528;13.316;2023-05-07T08:52:35;3.30;;;3.10;;
13989;SDS011;7069;52.528;13.316;2023-05-07T08:55:01;3.05;;;2.80;;
13989;SDS011;7069;52.528;13.316;2023-05-07T08:57:29;5.00;;;2.95;;
13989;SDS011;7069;52.528;13.316;2023-05-07T08:59:55;2.83;;;2.53;;
13989;SDS011;7069;52.528;13.316;2023-05-07T09:02:22;2.78;;;2.58;;
13989;SDS011;7069;52.528;13.316;2023-05-07T09:04:49;3.65;;;3.00;;
13989;SDS011;7069;52.528;13.316;2023-05-07T09:07:17;3.00;;;2.70;;
13989;SDS011;7069;52.528;13.316;2023-05-07T09:09:44;4.18;;;2.67;;
13989;SDS011;7069;52.528;13.316;2023-05-07T09:12:10;2.95;;;2.75;;
13989;SDS011;7069;52.528;13.316;2023-05-07T09:14:37;3.08;;;2.67;;
13989;SDS011;7069;52.528;13.316;2023-05-07T09:17:04;3.75;;;2.70;;
13989;SDS011;7069;52.528;13.316;2023-05-07T09:19:30;3.95;;;2.83;;
13989;SDS011;7069;52.528;13.316;2023-05-07T09:22:00;2.80;;;2.60;;
13989;SDS011;7069;52.528;13.316;2023-05-07T09:24:28;2.90;;;2.70;;
13989;SDS011;7069;52.528;13.316;2023-05-07T09:26:58;3.47;;;3.00;;
13989;SDS011;7069;52.528;13.316;2023-05-07T09:29:26;3.20;;;2.97;;
13989;SDS011;7069;52.528;13.316;2023-05-07T09:31:53;3.75;;;3.17;;
13989;SDS011;7069;52.528;13.316;2023-05-07T09:34:20;3.70;;;3.10;;
13989;SDS011;7069;52.528;13.316;2023-05-07T09:36:47;2.80;;;2.60;;
13989;SDS011;7069;52.528;13.316;2023-05-07T09:39:13;3.78;;;2.80;;
13989;SDS011;7069;52.528;13.316;2023-05-07T09:41:44;3.58;;;3.28;;
13989;SDS011;7069;52.528;13.316;2023-05-07T09:44:11;4.00;;;3.60;;
13989;SDS011;7069;52.528;13.316;2023-05-07T09:46:38;4.80;;;3.08;;
13989;SDS011;7069;52.528;13.316;2023-05-07T09:49:05;3.25;;;2.92;;
13989;SDS011;7069;52.528;13.316;2023-05-07T09:51:37;3.88;;;2.92;;
13989;SDS011;7069;52.528;13.316;2023-05-07T09:54:05;3.05;;;2.78;;
13989;SDS011;7069;52.528;13.316;2023-05-07T09:56:32;6.15;;;3.83;;
13989;SDS011;7069;52.528;13.316;2023-05-07T09:59:01;3.20;;;2.67;;
13989;SDS011;7069;52.528;13.316;2023-05-07T10:01:29;3.25;;;2.95;;
13989;SDS011;7069;52.528;13.316;2023-05-07T10:03:57;2.85;;;2.65;;
13989;SDS011;7069;52.528;13.316;2023-05-07T10:06:24;3.10;;;2.58;;
13989;SDS011;7069;52.528;13.316;2023-05-07T10:08:50;2.63;;;2.42;;
13989;SDS011;7069;52.528;13.316;2023-05-07T10:11:17;2.75;;;2.55;;
13989;SDS011;7069;52.528;13.316;2023-05-07T10:13:44;2.72;;;2.42;;
13989;SDS011;7069;52.528;13.316;2023-05-07T10:16:14;3.35;;;2.88;;
13989;SDS011;7069;52.528;13.316;2023-05-07T10:18:40;2.55;;;2.35;;
13989;SDS011;7069;52.528;13.316;2023-05-07T10:21:07;2.45;;;2.25;;
13989;SDS011;7069;52.528;13.316;2023-05-07T10:23:34;2.60;;;2.15;;
13989;SDS011;7069;52.528;13.316;2023-05-07T10:26:01;3.00;;;2.42;;
13989;SDS011;7069;52.528;13.316;2023-05-07T10:28:29;2.90;;;2.70;;
13989;SDS011;7069;52.528;13.316;2023-05-07T10:31:03;2.40;;;2.20;;
13989;SDS011;7069;52.528;13.316;2023-05-07T10:33:35;2.47;;;2.10;;
13989;SDS011;7069;52.528;13.316;2023-05-07T10:36:03;3.30;;;2.00;;
13989;SDS011;7069;52.528;13.316;2023-05-07T10:38:30;3.17;;;2.47;;
13989;SDS011;7069;52.528;13.316;2023-05-07T10:40:57;3.22;;;2.30;;
13989;SDS011;7069;52.528;13.316;2023-05-07T10:43:23;2.50;;;2.30;;
13989;SDS011;7069;52.528;13.316;2023-05-07T10:48:31;3.53;;;1.48;;
13989;SDS011;7069;52.528;13.316;2023-05-07T10:53:41;1.45;;;1.35;;
13989;SDS011;7069;52.528;13.316;2023-05-07T10:56:26;2.22;;;2.00;;
13989;SDS011;7069;52.528;13.316;2023-05-07T10:58:56;1.60;;;1.50;;
13989;SDS011;7069;52.528;13.316;2023-05-07T11:01:49;4.47;;;1.83;;
13989;SDS011;7069;52.528;13.316;2023-05-07T11:04:16;2.45;;;1.83;;
13989;SDS011;7069;52.528;13.316;2023-05-07T11:12:13;3.92;;;1.75;;
13989;SDS011;7069;52.528;13.316;2023-05-07T11:14:43;2.10;;;1.90;;
13989;SDS011;7069;52.528;13.316;2023-05-07T11:17:10;1.65;;;1.50;;
13989;SDS011;7069;52.528;13.316;2023-05-07T11:19:48;5.25;;;2.15;;
13989;SDS011;7069;52.528;13.316;2023-05-07T11:25:01;2.83;;;2.00;;
13989;SDS011;7069;52.528;13.316;2023-05-07T11:27:29;3.42;;;2.20;;
13989;SDS011;7069;52.528;13.316;2023-05-07T11:29:55;2.15;;;1.95;;
13989;SDS011;7069;52.528;13.316;2023-05-07T11:32:22;1.73;;;1.63;;
13989;SDS011;7069;52.528;13.316;2023-05-07T11:34:51;2.10;;;1.98;;
13989;SDS011;7069;52.528;13.316;2023-05-07T11:37:17;4.45;;;1.77;;
13989;SDS011;7069;52.528;13.316;2023-05-07T11:39:44;2.20;;;2.00;;
13989;SDS011;7069;52.528;13.316;2023-05-07T11:42:24;2.90;;;2.00;;
13989;SDS011;7069;52.528;13.316;2023-05-07T11:44:52;2.30;;;1.80;;
13989;SDS011;7069;52.528;13.316;2023-05-07T11:47:19;2.28;;;1.77;;
13989;SDS011;7069;52.528;13.316;2023-05-07T11:49:47;2.40;;;2.20;;
13989;SDS011;7069;52.528;13.316;2023-05-07T11:52:13;2.80;;;1.90;;
13989;SDS011;7069;52.528;13.316;2023-05-07T11:54:40;2.25;;;2.05;;
13989;SDS011;7069;52.528;13.316;2023-05-07T11:57:07;3.38;;;2.22;;
13989;SDS011;7069;52.528;13.316;2023-05-07T11:59:40;2.25;;;2.00;;
13989;SDS011;7069;52.528;13.316;2023-05-07T12:02:08;2.83;;;2.30;;
13989;SDS011;7069;52.528;13.316;2023-05-07T12:04:35;3.58;;;2.25;;
13989;SDS011;7069;52.528;13.316;2023-05-07T12:07:02;9.48;;;2.35;;
13989;SDS011;7069;52.528;13.316;2023-05-07T12:09:28;2.00;;;1.90;;
13989;SDS011;7069;52.528;13.316;2023-05-07T12:11:55;2.70;;;2.40;;
13989;SDS011;7069;52.528;13.316;2023-05-07T12:14:21;2.80;;;2.20;;
13989;SDS011;7069;52.528;13.316;2023-05-07T12:16:48;3.33;;;2.05;;
13989;SDS011;7069;52.528;13.316;2023-05-07T12:19:16;3.40;;;2.03;;
13989;SDS011;7069;52.528;13.316;2023-05-07T12:21:43;1.95;;;1.77;;
13989;SDS011;7069;52.528;13.316;2023-05-07T12:24:10;2.72;;;2.20;;
13989;SDS011;7069;52.528;13.316;2023-05-07T12:26:37;2.70;;;2.40;;
13989;SDS011;7069;52.528;13.316;2023-05-07T12:29:05;1.65;;;1.55;;
13989;SDS011;7069;52.528;13.316;2023-05-07T12:31:32;1.85;;;1.75;;
13989;SDS011;7069;52.528;13.316;2023-05-07T12:33:59;2.35;;;2.00;;
13989;SDS011;7069;52.528;13.316;2023-05-07T12:36:27;2.55;;;2.00;;
13989;SDS011;7069;52.528;13.316;2023-05-07T12:39:03;2.60;;;2.40;;
13989;SDS011;7069;52.528;13.316;2023-05-07T12:41:30;2.05;;;1.77;;
13989;SDS011;7069;52.528;13.316;2023-05-07T12:43:57;1.50;;;1.40;;
13989;SDS011;7069;52.528;13.316;2023-05-07T12:46:23;2.15;;;1.95;;
13989;SDS011;7069;52.528;13.316;2023-05-07T12:48:50;1.60;;;1.50;;
13989;SDS011;7069;52.528;13.316;2023-05-07T12:51:18;1.77;;;1.65;;
13989;SDS011;7069;52.528;13.316;2023-05-07T12:53:46;2.10;;;1.90;;
13989;SDS011;7069;52.528;13.316;2023-05-07T12:56:15;1.92;;;1.70;;
13989;SDS011;7069;52.528;13.316;2023-05-07T12:58:42;2.10;;;1.90;;
13989;SDS011;7069;52.528;13.316;2023-05-07T13:01:08;2.28;;;1.90;;
13989;SDS011;7069;52.528;13.316;2023-05-07T13:03:40;2.00;;;1.88;;
13989;SDS011;7069;52.528;13.316;2023-05-07T13:06:07;2.78;;;1.70;;
13989;SDS011;7069;52.528;13.316;2023-05-07T13:08:37;2.45;;;2.25;;
13989;SDS011;7069;52.528;13.316;2023-05-07T13:11:07;3.47;;;1.80;;
13989;SDS011;7069;52.528;13.316;2023-05-07T13:13:34;2.25;;;2.05;;
13989;SDS011;7069;52.528;13.316;2023-05-07T13:16:01;2.47;;;1.67;;
13989;SDS011;7069;52.528;13.316;2023-05-07T13:18:28;1.55;;;1.45;;
13989;SDS011;7069;52.528;13.316;2023-05-07T13:20:55;2.30;;;1.30;;
13989;SDS011;7069;52.528;13.316;2023-05-07T13:23:22;1.40;;;1.30;;
13989;SDS011;7069;52.528;13.316;2023-05-07T13:25:48;1.70;;;1.60;;
13989;SDS011;7069;52.528;13.316;2023-05-07T13:28:16;3.80;;;2.20;;
13989;SDS011;7069;52.528;13.316;2023-05-07T13:30:43;3.95;;;2.45;;
13989;SDS011;7069;52.528;13.316;2023-05-07T13:33:10;2.53;;;2.25;;
13989;SDS011;7069;52.528;13.316;2023-05-07T13:35:37;2.33;;;1.60;;
13989;SDS011;7069;52.528;13.316;2023-05-07T13:38:03;1.83;;;1.67;;
13989;SDS011;7069;52.528;13.316;2023-05-07T13:40:30;3.10;;;2.05;;
13989;SDS011;7069;52.528;13.316;2023-05-07T13:42:57;2.08;;;1.73;;
13989;SDS011;7069;52.528;13.316;2023-05-07T13:45:27;1.50;;;1.40;;
13989;SDS011;7069;52.528;13.316;2023-05-07T13:47:54;1.17;;;1.13;;
13989;SDS011;7069;52.528;13.316;2023-05-07T13:50:21;1.50;;;1.40;;
13989;SDS011;7069;52.528;13.316;2023-05-07T13:52:48;3.60;;;1.77;;
13989;SDS011;7069;52.528;13.316;2023-05-07T13:55:16;1.77;;;1.30;;
13989;SDS011;7069;52.528;13.316;2023-05-07T13:57:42;1.60;;;1.45;;
13989;SDS011;7069;52.528;13.316;2023-05-07T14:00:09;2.08;;;1.65;;
13989;SDS011;7069;52.528;13.316;2023-05-07T14:02:37;2.75;;;1.80;;
13989;SDS011;7069;52.528;13.316;2023-05-07T14:05:04;2.17;;;1.50;;
13989;SDS011;7069;52.528;13.316;2023-05-07T14:07:30;1.60;;;1.42;;
13989;SDS011;7069;52.528;13.316;2023-05-07T14:09:57;3.90;;;1.77;;
13989;SDS011;7069;52.528;13.316;2023-05-07T14:12:23;1.70;;;1.60;;
13989;SDS011;7069;52.528;13.316;2023-05-07T14:14:50;1.90;;;1.80;;
13989;SDS011;7069;52.528;13.316;2023-05-07T14:17:16;2.63;;;2.30;;
13989;SDS011;7069;52.528;13.316;2023-05-07T14:19:44;3.25;;;2.35;;
13989;SDS011;7069;52.528;13.316;2023-05-07T14:22:13;2.78;;;2.47;;
13989;SDS011;7069;52.528;13.316;2023-05-07T14:24:39;1.90;;;1.77;;
13989;SDS011;7069;52.528;13.316;2023-05-07T14:27:06;3.55;;;1.58;;
13989;SDS011;7069;52.528;13.316;2023-05-07T14:29:32;3.80;;;2.47;;
13989;SDS011;7069;52.528;13.316;2023-05-07T14:32:00;2.13;;;1.98;;
13989;SDS011;7069;52.528;13.316;2023-05-07T14:34:27;2.08;;;1.55;;
13989;SDS011;7069;52.528;13.316;2023-05-07T14:36:55;6.50;;;2.10;;
13989;SDS011;7069;52.528;13.316;2023-05-07T14:39:21;2.10;;;1.52;;
13989;SDS011;7069;52.528;13.316;2023-05-07T14:41:48;3.55;;;1.85;;
13989;SDS011;7069;52.528;13.316;2023-05-07T14:44:14;2.50;;;2.30;;
13989;SDS011;7069;52.528;13.316;2023-05-07T14:46:41;2.35;;;1.83;;
13989;SDS011;7069;52.528;13.316;2023-05-07T14:49:07;2.22;;;2.03;;
13989;SDS011;7069;52.528;13.316;2023-05-07T14:51:41;6.43;;;2.00;;
13989;SDS011;7069;52.528;13.316;2023-05-07T14:54:09;1.65;;;1.55;;
13989;SDS011;7069;52.528;13.316;2023-05-07T14:56:35;1.80;;;1.70;;
13989;SDS011;7069;52.528;13.316;2023-05-07T14:59:02;3.13;;;1.73;;